createdAt,value
2022-08-11T00:06:55.984Z,3.30
2022-08-11T00:17:03.912Z,3.50
2022-08-11T00:27:10.452Z,3.30
2022-08-11T00:37:23.263Z,3.40
2022-08-11T00:47:44.231Z,3.40
2022-08-11T00:58:22.543Z,3.80
2022-08-11T01:09:02.358Z,3.80
2022-08-11T01:20:45.415Z,3.10
2022-08-11T01:30:58.784Z,3.40
2022-08-11T01:42:05.417Z,3.30
2022-08-11T01:52:19.841Z,3.40
2022-08-11T02:02:47.878Z,2.90
2022-08-11T02:12:56.761Z,4.30
2022-08-11T02:24:07.206Z,3.30
2022-08-11T02:33:58.721Z,3.40
2022-08-11T02:44:18.478Z,3.00
2022-08-11T02:54:30.834Z,3.30
2022-08-11T03:04:51.412Z,4.20
2022-08-11T03:15:20.883Z,3.70
2022-08-11T03:25:32.622Z,3.70
2022-08-11T03:35:46.579Z,3.70
2022-08-11T03:46:02.942Z,4.20
2022-08-11T03:56:23.807Z,5.10
2022-08-11T04:06:51.636Z,4.30
2022-08-11T04:17:22.704Z,4.60
2022-08-11T04:27:48.375Z,5.40
2022-08-11T04:38:37.800Z,6.30
2022-08-11T04:49:25.835Z,3.80
2022-08-11T05:00:21.067Z,5.00
2022-08-11T05:10:43.333Z,3.40
2022-08-11T05:21:13.226Z,3.10
2022-08-11T05:31:41.125Z,2.80
2022-08-11T05:42:05.700Z,2.30
2022-08-11T05:52:38.345Z,2.70
2022-08-11T06:02:51.126Z,1.70
2022-08-11T06:13:01.190Z,2.00
2022-08-11T06:23:09.985Z,1.70
2022-08-11T06:33:19.243Z,1.80
2022-08-11T06:43:28.957Z,1.80
2022-08-11T06:53:37.186Z,1.30
2022-08-11T07:03:47.831Z,1.10
2022-08-11T07:14:17.183Z,1.10
2022-08-11T07:35:14.260Z,2.10
2022-08-11T07:45:40.764Z,3.40
2022-08-11T07:55:51.837Z,4.40
2022-08-11T08:06:23.277Z,3.30
2022-08-11T08:17:02.002Z,1.30
2022-08-11T08:27:08.737Z,0.90
2022-08-11T08:37:46.008Z,0.70
2022-08-11T08:47:52.463Z,0.90
2022-08-11T08:58:01.446Z,0.90
2022-08-11T09:08:07.883Z,1.00
2022-08-11T09:18:14.910Z,1.00
2022-08-11T09:28:23.021Z,1.00
2022-08-11T09:38:49.587Z,0.70
2022-08-11T09:48:59.126Z,1.30
2022-08-11T09:59:06.928Z,1.00
2022-08-11T10:09:14.422Z,0.60
2022-08-11T10:19:22.171Z,1.00
2022-08-11T10:30:07.791Z,0.60
2022-08-11T10:40:18.446Z,0.40
2022-08-11T10:50:42.275Z,0.80
2022-08-11T11:00:50.011Z,1.10
2022-08-11T11:10:56.834Z,1.10
2022-08-11T11:21:07.570Z,1.20
2022-08-11T11:31:26.180Z,1.50
2022-08-11T11:41:32.594Z,0.50
2022-08-11T11:51:40.317Z,1.30
2022-08-11T12:01:50.527Z,1.30
2022-08-11T12:12:18.957Z,0.80
2022-08-11T12:22:42.697Z,0.50
2022-08-11T12:32:49.108Z,1.20
2022-08-11T12:43:21.659Z,0.70
2022-08-11T12:53:33.270Z,2.00
2022-08-11T13:03:57.407Z,0.50
2022-08-11T13:14:04.392Z,0.90
2022-08-11T13:24:10.771Z,0.40
2022-08-11T13:34:19.755Z,1.10
2022-08-11T13:44:28.219Z,0.80
2022-08-11T13:54:38.427Z,1.40
2022-08-11T14:04:46.974Z,0.70
2022-08-11T14:15:08.220Z,1.40
2022-08-11T14:25:16.918Z,0.90
2022-08-11T14:35:23.039Z,1.50
2022-08-11T14:45:58.247Z,1.70
2022-08-11T14:56:21.222Z,1.90
2022-08-11T15:06:29.590Z,2.70
2022-08-11T15:16:54.858Z,1.80
2022-08-11T15:27:34.408Z,1.30
2022-08-11T15:37:42.490Z,1.50
2022-08-11T15:48:05.064Z,1.30
2022-08-11T15:58:30.687Z,0.80
2022-08-11T16:08:39.033Z,0.80
2022-08-11T16:18:51.642Z,0.60
2022-08-11T16:28:59.343Z,0.70
2022-08-11T16:39:07.614Z,1.10
2022-08-11T16:49:18.244Z,0.40
2022-08-11T16:59:30.798Z,2.60
2022-08-11T17:09:56.968Z,1.50
2022-08-11T17:20:40.583Z,1.60
2022-08-11T17:30:49.448Z,2.60
2022-08-11T17:41:30.177Z,4.80
2022-08-11T17:51:55.023Z,3.80
2022-08-11T18:02:29.581Z,2.10
2022-08-11T18:12:58.655Z,3.70
2022-08-11T18:23:46.217Z,4.00
2022-08-11T18:34:14.102Z,3.70
2022-08-11T18:55:03.550Z,2.10
2022-08-11T19:06:33.732Z,1.90
2022-08-11T19:16:14.548Z,2.40
2022-08-11T19:26:39.192Z,2.40
2022-08-11T19:37:04.063Z,4.10
2022-08-11T19:47:28.920Z,3.00
2022-08-11T19:57:55.363Z,2.40
2022-08-11T20:08:19.929Z,3.00
2022-08-11T20:18:45.594Z,4.00
2022-08-11T20:29:12.482Z,3.50
2022-08-11T20:39:36.567Z,3.60
2022-08-11T20:50:03.009Z,2.00
2022-08-11T21:00:38.749Z,2.40
2022-08-11T21:11:06.323Z,2.90
2022-08-11T21:21:45.621Z,1.80
2022-08-11T21:32:11.814Z,2.00
2022-08-11T21:42:37.926Z,1.90
2022-08-11T21:53:02.118Z,2.60
2022-08-11T22:03:26.603Z,1.40
2022-08-11T22:14:06.327Z,1.20
2022-08-11T22:24:32.782Z,1.50
2022-08-11T22:34:57.813Z,1.70
2022-08-11T22:45:21.429Z,2.20
2022-08-11T22:55:46.386Z,2.50
2022-08-11T23:06:10.421Z,1.60
2022-08-11T23:16:34.927Z,1.60
2022-08-11T23:26:58.979Z,1.40
2022-08-11T23:37:22.802Z,1.20
2022-08-11T23:47:50.532Z,0.80
2022-08-11T23:58:15.086Z,0.90
